sensor_id;sensor_type;location;lat;lon;timestamp;P1;durP1;ratioP1;P2;durP2;ratioP2
65279;SDS011;51878;55.748;48.742;2023-04-16T00:04:18;3.75;;;2.30;;
65279;SDS011;51878;55.748;48.742;2023-04-16T00:09:20;5.82;;;2.58;;
65279;SDS011;51878;55.748;48.742;2023-04-16T00:14:22;6.57;;;2.58;;
65279;SDS011;51878;55.748;48.742;2023-04-16T00:19:24;5.00;;;3.00;;
65279;SDS011;51878;55.748;48.742;2023-04-16T00:24:26;6.68;;;2.90;;
65279;SDS011;51878;55.748;48.742;2023-04-16T00:29:28;3.85;;;2.30;;
65279;SDS011;51878;55.748;48.742;2023-04-16T00:34:31;3.97;;;2.40;;
65279;SDS011;51878;55.748;48.742;2023-04-16T00:39:33;4.53;;;2.40;;
65279;SDS011;51878;55.748;48.742;2023-04-16T00:44:36;6.82;;;2.83;;
65279;SDS011;51878;55.748;48.742;2023-04-16T00:49:38;3.85;;;2.30;;
65279;SDS011;51878;55.748;48.742;2023-04-16T00:54:40;4.75;;;2.38;;
65279;SDS011;51878;55.748;48.742;2023-04-16T00:59:43;5.00;;;2.75;;
65279;SDS011;51878;55.748;48.742;2023-04-16T01:04:45;8.57;;;2.50;;
65279;SDS011;51878;55.748;48.742;2023-04-16T01:09:47;4.30;;;2.22;;
65279;SDS011;51878;55.748;48.742;2023-04-16T01:14:50;5.70;;;2.63;;
65279;SDS011;51878;55.748;48.742;2023-04-16T01:19:52;7.13;;;2.78;;
65279;SDS011;51878;55.748;48.742;2023-04-16T01:24:55;5.13;;;2.78;;
65279;SDS011;51878;55.748;48.742;2023-04-16T01:29:57;9.60;;;2.80;;
65279;SDS011;51878;55.748;48.742;2023-04-16T01:34:59;8.20;;;3.80;;
65279;SDS011;51878;55.748;48.742;2023-04-16T01:40:03;11.95;;;3.78;;
65279;SDS011;51878;55.748;48.742;2023-04-16T01:45:06;7.28;;;3.22;;
65279;SDS011;51878;55.748;48.742;2023-04-16T01:50:09;7.80;;;3.95;;
65279;SDS011;51878;55.748;48.742;2023-04-16T01:55:12;9.85;;;3.47;;
65279;SDS011;51878;55.748;48.742;2023-04-16T02:00:14;4.82;;;2.90;;
65279;SDS011;51878;55.748;48.742;2023-04-16T02:05:16;6.85;;;3.10;;
65279;SDS011;51878;55.748;48.742;2023-04-16T02:10:18;4.57;;;2.50;;
65279;SDS011;51878;55.748;48.742;2023-04-16T02:15:21;7.40;;;3.20;;
65279;SDS011;51878;55.748;48.742;2023-04-16T02:20:25;6.90;;;3.13;;
65279;SDS011;51878;55.748;48.742;2023-04-16T02:25:28;5.95;;;3.10;;
65279;SDS011;51878;55.748;48.742;2023-04-16T02:30:30;6.25;;;2.90;;
65279;SDS011;51878;55.748;48.742;2023-04-16T02:35:33;7.32;;;2.90;;
65279;SDS011;51878;55.748;48.742;2023-04-16T02:40:35;6.13;;;2.53;;
65279;SDS011;51878;55.748;48.742;2023-04-16T02:45:37;3.85;;;2.13;;
65279;SDS011;51878;55.748;48.742;2023-04-16T02:50:41;4.72;;;2.35;;
65279;SDS011;51878;55.748;48.742;2023-04-16T02:55:49;5.40;;;2.40;;
65279;SDS011;51878;55.748;48.742;2023-04-16T03:00:56;8.43;;;3.40;;
65279;SDS011;51878;55.748;48.742;2023-04-16T03:05:58;6.40;;;3.20;;
65279;SDS011;51878;55.748;48.742;2023-04-16T03:11:00;6.10;;;3.35;;
65279;SDS011;51878;55.748;48.742;2023-04-16T03:16:02;5.53;;;2.92;;
65279;SDS011;51878;55.748;48.742;2023-04-16T03:21:04;6.28;;;2.53;;
65279;SDS011;51878;55.748;48.742;2023-04-16T03:26:06;5.57;;;2.65;;
65279;SDS011;51878;55.748;48.742;2023-04-16T03:31:09;2.55;;;1.95;;
65279;SDS011;51878;55.748;48.742;2023-04-16T03:36:11;3.75;;;2.15;;
65279;SDS011;51878;55.748;48.742;2023-04-16T03:41:13;7.70;;;2.58;;
65279;SDS011;51878;55.748;48.742;2023-04-16T03:46:15;5.60;;;2.72;;
65279;SDS011;51878;55.748;48.742;2023-04-16T03:51:17;5.32;;;2.70;;
65279;SDS011;51878;55.748;48.742;2023-04-16T03:56:19;3.35;;;2.17;;
65279;SDS011;51878;55.748;48.742;2023-04-16T04:01:21;4.43;;;2.17;;
65279;SDS011;51878;55.748;48.742;2023-04-16T04:06:24;4.40;;;2.05;;
65279;SDS011;51878;55.748;48.742;2023-04-16T04:11:26;4.15;;;2.13;;
65279;SDS011;51878;55.748;48.742;2023-04-16T04:16:28;4.70;;;2.30;;
65279;SDS011;51878;55.748;48.742;2023-04-16T04:21:30;5.85;;;2.20;;
65279;SDS011;51878;55.748;48.742;2023-04-16T04:26:32;3.30;;;1.98;;
65279;SDS011;51878;55.748;48.742;2023-04-16T04:31:37;3.40;;;2.00;;
65279;SDS011;51878;55.748;48.742;2023-04-16T04:36:39;5.60;;;2.08;;
65279;SDS011;51878;55.748;48.742;2023-04-16T04:41:44;4.25;;;1.60;;
65279;SDS011;51878;55.748;48.742;2023-04-16T04:46:48;5.15;;;1.90;;
65279;SDS011;51878;55.748;48.742;2023-04-16T04:51:50;19.25;;;2.75;;
65279;SDS011;51878;55.748;48.742;2023-04-16T04:56:52;6.25;;;1.73;;
65279;SDS011;51878;55.748;48.742;2023-04-16T05:01:57;4.07;;;1.73;;
65279;SDS011;51878;55.748;48.742;2023-04-16T05:07:00;5.55;;;2.50;;
65279;SDS011;51878;55.748;48.742;2023-04-16T05:12:03;3.90;;;2.17;;
65279;SDS011;51878;55.748;48.742;2023-04-16T05:17:08;3.25;;;1.80;;
65279;SDS011;51878;55.748;48.742;2023-04-16T05:22:11;3.33;;;1.80;;
65279;SDS011;51878;55.748;48.742;2023-04-16T05:27:13;3.35;;;1.75;;
65279;SDS011;51878;55.748;48.742;2023-04-16T05:32:16;2.75;;;1.98;;
65279;SDS011;51878;55.748;48.742;2023-04-16T05:37:18;2.17;;;1.85;;
65279;SDS011;51878;55.748;48.742;2023-04-16T05:42:23;3.55;;;1.88;;
65279;SDS011;51878;55.748;48.742;2023-04-16T05:47:25;3.47;;;1.80;;
65279;SDS011;51878;55.748;48.742;2023-04-16T05:52:27;1.75;;;1.52;;
65279;SDS011;51878;55.748;48.742;2023-04-16T05:57:29;4.43;;;1.60;;
65279;SDS011;51878;55.748;48.742;2023-04-16T06:02:32;2.15;;;1.52;;
65279;SDS011;51878;55.748;48.742;2023-04-16T06:07:34;3.97;;;1.80;;
65279;SDS011;51878;55.748;48.742;2023-04-16T06:12:36;4.28;;;1.45;;
65279;SDS011;51878;55.748;48.742;2023-04-16T06:17:39;2.47;;;1.65;;
65279;SDS011;51878;55.748;48.742;2023-04-16T06:22:41;4.82;;;1.85;;
65279;SDS011;51878;55.748;48.742;2023-04-16T06:27:46;3.60;;;1.73;;
65279;SDS011;51878;55.748;48.742;2023-04-16T06:33:04;6.03;;;1.98;;
65279;SDS011;51878;55.748;48.742;2023-04-16T06:38:09;2.85;;;1.85;;
65279;SDS011;51878;55.748;48.742;2023-04-16T06:43:11;2.67;;;1.65;;
65279;SDS011;51878;55.748;48.742;2023-04-16T06:48:14;2.47;;;1.67;;
65279;SDS011;51878;55.748;48.742;2023-04-16T06:53:19;5.97;;;2.10;;
65279;SDS011;51878;55.748;48.742;2023-04-16T06:58:21;4.03;;;2.15;;
65279;SDS011;51878;55.748;48.742;2023-04-16T07:03:23;6.93;;;1.80;;
65279;SDS011;51878;55.748;48.742;2023-04-16T07:08:25;3.75;;;1.80;;
65279;SDS011;51878;55.748;48.742;2023-04-16T07:13:30;3.95;;;1.67;;
65279;SDS011;51878;55.748;48.742;2023-04-16T07:18:33;3.50;;;2.00;;
65279;SDS011;51878;55.748;48.742;2023-04-16T07:23:35;3.35;;;1.45;;
65279;SDS011;51878;55.748;48.742;2023-04-16T07:28:37;4.45;;;1.40;;
65279;SDS011;51878;55.748;48.742;2023-04-16T07:33:39;2.75;;;1.60;;
65279;SDS011;51878;55.748;48.742;2023-04-16T07:38:42;2.58;;;1.20;;
65279;SDS011;51878;55.748;48.742;2023-04-16T07:43:47;1.77;;;1.25;;
65279;SDS011;51878;55.748;48.742;2023-04-16T07:48:49;2.35;;;1.30;;
65279;SDS011;51878;55.748;48.742;2023-04-16T07:53:52;4.68;;;1.30;;
65279;SDS011;51878;55.748;48.742;2023-04-16T07:58:54;5.15;;;1.20;;
65279;SDS011;51878;55.748;48.742;2023-04-16T08:03:56;2.97;;;1.20;;
65279;SDS011;51878;55.748;48.742;2023-04-16T08:08:58;7.05;;;1.30;;
65279;SDS011;51878;55.748;48.742;2023-04-16T08:14:00;3.33;;;1.23;;
65279;SDS011;51878;55.748;48.742;2023-04-16T08:19:03;2.88;;;1.27;;
65279;SDS011;51878;55.748;48.742;2023-04-16T08:24:09;3.00;;;1.27;;
65279;SDS011;51878;55.748;48.742;2023-04-16T08:29:13;4.28;;;1.60;;
65279;SDS011;51878;55.748;48.742;2023-04-16T08:34:15;3.78;;;1.30;;
65279;SDS011;51878;55.748;48.742;2023-04-16T08:39:20;3.15;;;1.50;;
65279;SDS011;51878;55.748;48.742;2023-04-16T08:44:26;1.85;;;1.27;;
65279;SDS011;51878;55.748;48.742;2023-04-16T08:49:32;10.93;;;1.38;;
65279;SDS011;51878;55.748;48.742;2023-04-16T08:54:47;3.70;;;1.17;;
65279;SDS011;51878;55.748;48.742;2023-04-16T09:00:06;2.53;;;1.30;;
65279;SDS011;51878;55.748;48.742;2023-04-16T09:05:09;4.88;;;1.35;;
65279;SDS011;51878;55.748;48.742;2023-04-16T09:10:18;6.72;;;1.60;;
65279;SDS011;51878;55.748;48.742;2023-04-16T09:15:23;4.60;;;1.70;;
65279;SDS011;51878;55.748;48.742;2023-04-16T09:20:26;5.35;;;1.20;;
65279;SDS011;51878;55.748;48.742;2023-04-16T09:25:32;2.92;;;1.40;;
65279;SDS011;51878;55.748;48.742;2023-04-16T09:30:39;1.90;;;1.20;;
65279;SDS011;51878;55.748;48.742;2023-04-16T09:35:45;2.85;;;1.50;;
65279;SDS011;51878;55.748;48.742;2023-04-16T09:41:04;5.85;;;1.50;;
65279;SDS011;51878;55.748;48.742;2023-04-16T09:46:08;8.13;;;1.70;;
65279;SDS011;51878;55.748;48.742;2023-04-16T09:51:13;3.80;;;1.33;;
65279;SDS011;51878;55.748;48.742;2023-04-16T09:56:16;6.07;;;2.38;;
65279;SDS011;51878;55.748;48.742;2023-04-16T10:01:19;4.30;;;1.60;;
65279;SDS011;51878;55.748;48.742;2023-04-16T10:06:22;4.45;;;1.20;;
65279;SDS011;51878;55.748;48.742;2023-04-16T10:11:31;3.45;;;1.33;;
65279;SDS011;51878;55.748;48.742;2023-04-16T10:16:33;4.05;;;1.33;;
65279;SDS011;51878;55.748;48.742;2023-04-16T10:21:36;1.95;;;1.30;;
65279;SDS011;51878;55.748;48.742;2023-04-16T10:26:40;3.28;;;1.30;;
65279;SDS011;51878;55.748;48.742;2023-04-16T10:31:45;2.13;;;1.42;;
65279;SDS011;51878;55.748;48.742;2023-04-16T10:36:53;2.17;;;1.40;;
65279;SDS011;51878;55.748;48.742;2023-04-16T10:42:09;2.13;;;1.40;;
65279;SDS011;51878;55.748;48.742;2023-04-16T10:47:16;2.45;;;1.40;;
65279;SDS011;51878;55.748;48.742;2023-04-16T10:52:18;2.65;;;1.40;;
65279;SDS011;51878;55.748;48.742;2023-04-16T10:57:20;3.30;;;1.27;;
65279;SDS011;51878;55.748;48.742;2023-04-16T11:02:27;5.35;;;1.60;;
65279;SDS011;51878;55.748;48.742;2023-04-16T11:07:43;2.50;;;1.40;;
65279;SDS011;51878;55.748;48.742;2023-04-16T11:12:50;2.13;;;1.38;;
65279;SDS011;51878;55.748;48.742;2023-04-16T11:17:53;2.50;;;1.10;;
65279;SDS011;51878;55.748;48.742;2023-04-16T11:22:56;2.47;;;1.27;;
65279;SDS011;51878;55.748;48.742;2023-04-16T11:28:01;5.82;;;1.23;;
65279;SDS011;51878;55.748;48.742;2023-04-16T11:33:04;2.85;;;1.40;;
65279;SDS011;51878;55.748;48.742;2023-04-16T11:38:10;3.95;;;1.40;;
65279;SDS011;51878;55.748;48.742;2023-04-16T11:43:15;1.38;;;1.00;;
65279;SDS011;51878;55.748;48.742;2023-04-16T11:48:18;2.53;;;1.10;;
65279;SDS011;51878;55.748;48.742;2023-04-16T11:53:20;3.58;;;1.50;;
65279;SDS011;51878;55.748;48.742;2023-04-16T11:58:22;3.45;;;1.13;;
65279;SDS011;51878;55.748;48.742;2023-04-16T12:03:41;3.30;;;1.23;;
65279;SDS011;51878;55.748;48.742;2023-04-16T12:08:47;1.70;;;1.30;;
65279;SDS011;51878;55.748;48.742;2023-04-16T12:14:05;8.80;;;1.50;;
65279;SDS011;51878;55.748;48.742;2023-04-16T12:19:12;4.95;;;2.13;;
65279;SDS011;51878;55.748;48.742;2023-04-16T12:24:17;3.47;;;1.40;;
65279;SDS011;51878;55.748;48.742;2023-04-16T12:29:25;2.10;;;1.40;;
65279;SDS011;51878;55.748;48.742;2023-04-16T12:34:28;2.75;;;1.67;;
65279;SDS011;51878;55.748;48.742;2023-04-16T12:39:49;5.28;;;2.85;;
65279;SDS011;51878;55.748;48.742;2023-04-16T12:44:51;9.52;;;6.85;;
65279;SDS011;51878;55.748;48.742;2023-04-16T12:49:54;31.17;;;19.02;;
65279;SDS011;51878;55.748;48.742;2023-04-16T12:54:58;25.90;;;19.80;;
65279;SDS011;51878;55.748;48.742;2023-04-16T13:00:00;16.10;;;10.77;;
65279;SDS011;51878;55.748;48.742;2023-04-16T13:05:05;14.70;;;8.20;;
65279;SDS011;51878;55.748;48.742;2023-04-16T13:10:08;9.65;;;7.15;;
65279;SDS011;51878;55.748;48.742;2023-04-16T13:15:16;11.27;;;7.32;;
65279;SDS011;51878;55.748;48.742;2023-04-16T13:20:18;9.60;;;5.30;;
65279;SDS011;51878;55.748;48.742;2023-04-16T13:25:20;4.65;;;3.25;;
65279;SDS011;51878;55.748;48.742;2023-04-16T13:30:25;6.97;;;3.65;;
65279;SDS011;51878;55.748;48.742;2023-04-16T13:35:30;7.60;;;4.25;;
65279;SDS011;51878;55.748;48.742;2023-04-16T13:40:32;6.03;;;2.90;;
65279;SDS011;51878;55.748;48.742;2023-04-16T13:45:36;3.90;;;1.60;;
65279;SDS011;51878;55.748;48.742;2023-04-16T13:50:38;4.40;;;1.50;;
65279;SDS011;51878;55.748;48.742;2023-04-16T13:55:43;2.33;;;1.30;;
65279;SDS011;51878;55.748;48.742;2023-04-16T14:00:45;2.80;;;1.58;;
65279;SDS011;51878;55.748;48.742;2023-04-16T14:05:48;2.55;;;1.30;;
65279;SDS011;51878;55.748;48.742;2023-04-16T14:10:50;2.13;;;1.08;;
65279;SDS011;51878;55.748;48.742;2023-04-16T14:15:53;1.88;;;1.27;;
65279;SDS011;51878;55.748;48.742;2023-04-16T14:20:56;2.75;;;1.75;;
65279;SDS011;51878;55.748;48.742;2023-04-16T14:25:59;2.60;;;1.27;;
65279;SDS011;51878;55.748;48.742;2023-04-16T14:31:02;4.80;;;1.48;;
65279;SDS011;51878;55.748;48.742;2023-04-16T14:36:04;1.23;;;1.10;;
65279;SDS011;51878;55.748;48.742;2023-04-16T14:41:07;4.15;;;1.40;;
65279;SDS011;51878;55.748;48.742;2023-04-16T14:46:09;2.65;;;1.48;;
65279;SDS011;51878;55.748;48.742;2023-04-16T14:51:11;5.57;;;1.30;;
65279;SDS011;51878;55.748;48.742;2023-04-16T14:56:13;2.03;;;1.35;;
65279;SDS011;51878;55.748;48.742;2023-04-16T15:01:16;3.05;;;1.23;;
65279;SDS011;51878;55.748;48.742;2023-04-16T15:06:18;3.08;;;1.23;;
65279;SDS011;51878;55.748;48.742;2023-04-16T15:11:23;3.50;;;1.10;;
65279;SDS011;51878;55.748;48.742;2023-04-16T15:16:26;7.13;;;1.50;;
65279;SDS011;51878;55.748;48.742;2023-04-16T15:21:28;1.40;;;1.30;;
65279;SDS011;51878;55.748;48.742;2023-04-16T15:26:32;2.17;;;1.10;;
65279;SDS011;51878;55.748;48.742;2023-04-16T15:31:34;5.35;;;1.40;;
65279;SDS011;51878;55.748;48.742;2023-04-16T15:36:36;5.95;;;1.20;;
65279;SDS011;51878;55.748;48.742;2023-04-16T15:41:38;8.68;;;1.60;;
65279;SDS011;51878;55.748;48.742;2023-04-16T15:46:57;5.85;;;1.50;;
65279;SDS011;51878;55.748;48.742;2023-04-16T15:52:00;4.50;;;1.55;;
65279;SDS011;51878;55.748;48.742;2023-04-16T15:57:02;3.15;;;1.45;;
65279;SDS011;51878;55.748;48.742;2023-04-16T16:02:05;1.25;;;1.15;;
65279;SDS011;51878;55.748;48.742;2023-04-16T16:07:07;3.53;;;2.08;;
65279;SDS011;51878;55.748;48.742;2023-04-16T16:12:09;2.97;;;1.45;;
65279;SDS011;51878;55.748;48.742;2023-04-16T16:17:11;1.67;;;1.35;;
65279;SDS011;51878;55.748;48.742;2023-04-16T16:22:13;4.60;;;1.50;;
65279;SDS011;51878;55.748;48.742;2023-04-16T16:27:20;2.45;;;1.50;;
65279;SDS011;51878;55.748;48.742;2023-04-16T16:32:25;5.75;;;1.98;;
65279;SDS011;51878;55.748;48.742;2023-04-16T16:37:28;3.33;;;1.70;;
65279;SDS011;51878;55.748;48.742;2023-04-16T16:42:30;4.57;;;1.92;;
65279;SDS011;51878;55.748;48.742;2023-04-16T16:47:32;2.80;;;1.70;;
65279;SDS011;51878;55.748;48.742;2023-04-16T16:52:34;2.90;;;1.63;;
65279;SDS011;51878;55.748;48.742;2023-04-16T16:57:39;3.13;;;1.50;;
65279;SDS011;51878;55.748;48.742;2023-04-16T17:02:41;3.22;;;1.67;;
65279;SDS011;51878;55.748;48.742;2023-04-16T17:07:44;4.05;;;1.90;;
65279;SDS011;51878;55.748;48.742;2023-04-16T17:12:49;6.05;;;2.00;;
65279;SDS011;51878;55.748;48.742;2023-04-16T17:17:52;3.70;;;1.60;;
65279;SDS011;51878;55.748;48.742;2023-04-16T17:22:58;6.38;;;3.90;;
65279;SDS011;51878;55.748;48.742;2023-04-16T17:28:01;6.07;;;1.88;;
65279;SDS011;51878;55.748;48.742;2023-04-16T17:33:03;2.88;;;1.50;;
65279;SDS011;51878;55.748;48.742;2023-04-16T17:38:06;2.45;;;1.63;;
65279;SDS011;51878;55.748;48.742;2023-04-16T17:43:10;3.78;;;1.85;;
65279;SDS011;51878;55.748;48.742;2023-04-16T17:48:12;2.03;;;1.60;;
65279;SDS011;51878;55.748;48.742;2023-04-16T17:53:14;2.28;;;1.23;;
65279;SDS011;51878;55.748;48.742;2023-04-16T17:58:17;4.03;;;1.58;;
65279;SDS011;51878;55.748;48.742;2023-04-16T18:03:19;2.00;;;1.38;;
65279;SDS011;51878;55.748;48.742;2023-04-16T18:08:22;4.00;;;1.88;;
65279;SDS011;51878;55.748;48.742;2023-04-16T18:13:25;3.28;;;1.52;;
65279;SDS011;51878;55.748;48.742;2023-04-16T18:18:27;3.63;;;1.50;;
65279;SDS011;51878;55.748;48.742;2023-04-16T18:23:30;2.42;;;1.65;;
65279;SDS011;51878;55.748;48.742;2023-04-16T18:28:32;1.48;;;1.23;;
65279;SDS011;51878;55.748;48.742;2023-04-16T18:33:36;2.17;;;1.52;;
65279;SDS011;51878;55.748;48.742;2023-04-16T18:38:56;6.10;;;1.80;;
65279;SDS011;51878;55.748;48.742;2023-04-16T18:44:02;3.33;;;1.80;;
65279;SDS011;51878;55.748;48.742;2023-04-16T18:49:05;7.78;;;1.63;;
65279;SDS011;51878;55.748;48.742;2023-04-16T18:54:07;3.42;;;1.67;;
65279;SDS011;51878;55.748;48.742;2023-04-16T18:59:09;7.22;;;1.45;;
65279;SDS011;51878;55.748;48.742;2023-04-16T19:04:12;2.75;;;1.55;;
65279;SDS011;51878;55.748;48.742;2023-04-16T19:09:14;4.07;;;1.33;;
65279;SDS011;51878;55.748;48.742;2023-04-16T19:14:20;1.55;;;1.40;;
65279;SDS011;51878;55.748;48.742;2023-04-16T19:19:22;2.13;;;1.35;;
65279;SDS011;51878;55.748;48.742;2023-04-16T19:24:33;2.53;;;1.30;;
65279;SDS011;51878;55.748;48.742;2023-04-16T19:29:44;11.25;;;1.75;;
65279;SDS011;51878;55.748;48.742;2023-04-16T19:34:47;2.97;;;1.70;;
65279;SDS011;51878;55.748;48.742;2023-04-16T19:39:49;3.50;;;1.83;;
65279;SDS011;51878;55.748;48.742;2023-04-16T19:44:51;3.15;;;1.60;;
65279;SDS011;51878;55.748;48.742;2023-04-16T19:49:53;2.45;;;1.77;;
65279;SDS011;51878;55.748;48.742;2023-04-16T19:54:56;1.70;;;1.50;;
65279;SDS011;51878;55.748;48.742;2023-04-16T19:59:58;2.17;;;1.60;;
65279;SDS011;51878;55.748;48.742;2023-04-16T20:05:00;2.50;;;1.75;;
65279;SDS011;51878;55.748;48.742;2023-04-16T20:10:04;3.22;;;1.70;;
65279;SDS011;51878;55.748;48.742;2023-04-16T20:15:07;5.22;;;1.90;;
65279;SDS011;51878;55.748;48.742;2023-04-16T20:20:09;1.83;;;1.50;;
65279;SDS011;51878;55.748;48.742;2023-04-16T20:25:13;6.85;;;1.85;;
65279;SDS011;51878;55.748;48.742;2023-04-16T20:30:21;2.42;;;1.80;;
65279;SDS011;51878;55.748;48.742;2023-04-16T20:35:29;3.75;;;1.98;;
65279;SDS011;51878;55.748;48.742;2023-04-16T20:40:31;2.22;;;1.58;;
65279;SDS011;51878;55.748;48.742;2023-04-16T20:45:33;5.07;;;1.73;;
65279;SDS011;51878;55.748;48.742;2023-04-16T20:50:41;2.05;;;1.38;;
65279;SDS011;51878;55.748;48.742;2023-04-16T20:55:44;2.80;;;1.50;;
65279;SDS011;51878;55.748;48.742;2023-04-16T21:00:52;1.70;;;1.60;;
65279;SDS011;51878;55.748;48.742;2023-04-16T21:05:55;1.98;;;1.45;;
65279;SDS011;51878;55.748;48.742;2023-04-16T21:10:57;1.67;;;1.40;;
65279;SDS011;51878;55.748;48.742;2023-04-16T21:16:00;3.92;;;1.50;;
65279;SDS011;51878;55.748;48.742;2023-04-16T21:21:02;2.42;;;1.42;;
65279;SDS011;51878;55.748;48.742;2023-04-16T21:26:04;2.70;;;1.80;;
65279;SDS011;51878;55.748;48.742;2023-04-16T21:31:06;3.13;;;1.60;;
65279;SDS011;51878;55.748;48.742;2023-04-16T21:36:08;3.45;;;1.70;;
65279;SDS011;51878;55.748;48.742;2023-04-16T21:41:12;4.68;;;1.85;;
65279;SDS011;51878;55.748;48.742;2023-04-16T21:46:14;1.95;;;1.50;;
65279;SDS011;51878;55.748;48.742;2023-04-16T21:51:16;2.67;;;1.60;;
65279;SDS011;51878;55.748;48.742;2023-04-16T21:56:18;3.33;;;2.10;;
65279;SDS011;51878;55.748;48.742;2023-04-16T22:01:20;3.03;;;1.80;;
65279;SDS011;51878;55.748;48.742;2023-04-16T22:06:23;1.45;;;1.35;;
65279;SDS011;51878;55.748;48.742;2023-04-16T22:11:29;2.95;;;1.63;;
65279;SDS011;51878;55.748;48.742;2023-04-16T22:16:31;1.88;;;1.50;;
65279;SDS011;51878;55.748;48.742;2023-04-16T22:21:34;2.08;;;1.60;;
65279;SDS011;51878;55.748;48.742;2023-04-16T22:26:39;3.65;;;1.80;;
65279;SDS011;51878;55.748;48.742;2023-04-16T22:31:41;1.70;;;1.35;;
65279;SDS011;51878;55.748;48.742;2023-04-16T22:36:43;3.33;;;1.50;;
65279;SDS011;51878;55.748;48.742;2023-04-16T22:41:45;2.40;;;1.48;;
65279;SDS011;51878;55.748;48.742;2023-04-16T22:46:48;3.40;;;1.83;;
65279;SDS011;51878;55.748;48.742;2023-04-16T22:51:50;3.50;;;1.88;;
65279;SDS011;51878;55.748;48.742;2023-04-16T22:56:52;2.33;;;1.52;;
65279;SDS011;51878;55.748;48.742;2023-04-16T23:01:54;2.03;;;1.52;;
65279;SDS011;51878;55.748;48.742;2023-04-16T23:06:56;3.50;;;1.80;;
65279;SDS011;51878;55.748;48.742;2023-04-16T23:11:59;3.15;;;1.90;;
65279;SDS011;51878;55.748;48.742;2023-04-16T23:17:02;4.22;;;1.95;;
65279;SDS011;51878;55.748;48.742;2023-04-16T23:22:04;4.22;;;1.88;;
65279;SDS011;51878;55.748;48.742;2023-04-16T23:27:06;3.13;;;1.60;;
65279;SDS011;51878;55.748;48.742;2023-04-16T23:32:08;1.83;;;1.52;;
65279;SDS011;51878;55.748;48.742;2023-04-16T23:37:11;1.88;;;1.52;;
65279;SDS011;51878;55.748;48.742;2023-04-16T23:42:13;2.17;;;1.60;;
65279;SDS011;51878;55.748;48.742;2023-04-16T23:47:15;3.00;;;1.50;;
65279;SDS011;51878;55.748;48.742;2023-04-16T23:52:17;4.05;;;1.90;;
65279;SDS011;51878;55.748;48.742;2023-04-16T23:57:19;2.53;;;1.38;;
